createdAt,value
2018-10-11T00:02:23.170Z,100539.64
2018-10-11T00:04:59.814Z,100532.09
2018-10-11T00:07:36.593Z,100537.25
2018-10-11T00:10:13.011Z,100531.38
2018-10-11T00:12:49.474Z,100539.22
2018-10-11T00:15:25.727Z,100532.21
2018-10-11T00:18:02.456Z,100532.21
2018-10-11T00:20:38.842Z,100541.61
2018-10-11T00:23:15.491Z,100533.55
2018-10-11T00:25:51.790Z,100547.61
2018-10-11T00:28:27.993Z,100542.63
2018-10-11T00:31:04.009Z,100545.13
2018-10-11T00:33:40.238Z,100545.64
2018-10-11T00:36:16.575Z,100553.31
2018-10-11T00:38:52.976Z,100551.97
2018-10-11T00:41:30.253Z,100547.94
2018-10-11T00:44:06.862Z,100546.05
2018-10-11T00:46:42.833Z,100544.20
2018-10-11T00:49:18.730Z,100550.08
2018-10-11T00:51:55.096Z,100551.12
2018-10-11T00:54:31.300Z,100547.28
2018-10-11T00:57:07.763Z,100551.52
2018-10-11T00:59:44.089Z,100557.09
2018-10-11T01:03:07.865Z,100556.03
2018-10-11T01:05:44.241Z,100556.66
2018-10-11T01:08:20.283Z,100558.83
2018-10-11T01:10:57.349Z,100559.67
2018-10-11T01:13:33.830Z,100557.48
2018-10-11T01:16:09.869Z,100556.66
2018-10-11T01:18:47.926Z,100559.25
2018-10-11T01:21:24.235Z,100556.73
2018-10-11T01:24:00.641Z,100550.33
2018-10-11T01:26:37.061Z,100561.61
2018-10-11T01:29:13.208Z,100560.47
2018-10-11T01:31:49.232Z,100560.35
2018-10-11T01:34:25.558Z,100566.44
2018-10-11T01:37:01.889Z,100559.61
2018-10-11T01:39:38.095Z,100560.11
2018-10-11T01:42:14.000Z,100561.63
2018-10-11T01:44:50.642Z,100564.82
2018-10-11T01:47:26.889Z,100567.20
2018-10-11T01:50:05.273Z,100573.80
2018-10-11T01:52:42.627Z,100578.20
2018-10-11T01:55:19.352Z,100582.44
2018-10-11T01:57:55.093Z,100583.45
2018-10-11T02:00:31.174Z,100577.79
2018-10-11T02:03:07.248Z,100575.10
2018-10-11T02:05:43.853Z,100582.83
2018-10-11T02:08:21.058Z,100579.00
2018-10-11T02:10:56.981Z,100582.41
2018-10-11T02:13:32.889Z,100584.76
2018-10-11T02:16:08.886Z,100585.80
2018-10-11T02:18:45.070Z,100585.17
2018-10-11T02:21:20.890Z,100586.18
2018-10-11T02:23:57.097Z,100580.19
2018-10-11T02:26:33.832Z,100589.45
2018-10-11T02:29:11.218Z,100584.30
2018-10-11T02:31:47.711Z,100594.70
2018-10-11T02:34:23.894Z,100589.84
2018-10-11T02:36:59.883Z,100589.53
2018-10-11T02:39:36.122Z,100591.71
2018-10-11T02:42:12.572Z,100596.45
2018-10-11T02:44:49.076Z,100595.78
2018-10-11T02:47:25.265Z,100602.20
2018-10-11T02:50:01.611Z,100606.73
2018-10-11T02:52:38.079Z,100613.64
2018-10-11T02:55:19.615Z,100616.53
2018-10-11T02:58:09.507Z,100611.79
2018-10-11T03:00:45.650Z,100609.61
2018-10-11T03:03:25.729Z,100610.83
2018-10-11T03:06:04.673Z,100613.72
2018-10-11T03:08:41.030Z,100614.42
2018-10-11T03:11:18.030Z,100612.25
2018-10-11T03:13:53.905Z,100615.81
2018-10-11T03:16:31.258Z,100624.11
2018-10-11T03:19:07.745Z,100622.06
2018-10-11T03:21:42.036Z,100633.97
2018-10-11T03:24:17.924Z,100632.92
2018-10-11T03:26:53.876Z,100633.77
2018-10-11T03:29:30.365Z,100625.38
2018-10-11T03:32:07.714Z,100631.08
2018-10-11T03:34:44.631Z,100629.73
2018-10-11T03:37:21.238Z,100627.56
2018-10-11T03:39:57.374Z,100638.09
2018-10-11T03:42:34.255Z,100632.22
2018-10-11T03:45:10.254Z,100636.75
2018-10-11T03:47:46.926Z,100635.41
2018-10-11T03:50:23.290Z,100635.81
2018-10-11T03:53:01.147Z,100635.77
2018-10-11T03:55:37.308Z,100639.58
2018-10-11T03:58:13.685Z,100637.41
2018-10-11T04:00:47.836Z,100642.77
2018-10-11T04:03:24.106Z,100647.00
2018-10-11T04:05:59.910Z,100649.47
2018-10-11T04:09:57.511Z,100643.55
2018-10-11T04:12:33.273Z,100655.12
2018-10-11T04:15:08.678Z,100652.81
2018-10-11T04:17:44.906Z,100656.33
2018-10-11T04:20:21.214Z,100653.14
2018-10-11T04:25:29.334Z,100651.16
2018-10-11T04:28:05.510Z,100646.51
2018-10-11T04:30:41.265Z,100651.47
2018-10-11T04:33:16.930Z,100648.66
2018-10-11T04:35:52.920Z,100654.02
2018-10-11T04:38:29.504Z,100652.88
2018-10-11T04:41:05.489Z,100655.19
2018-10-11T04:43:41.720Z,100657.30
2018-10-11T04:46:18.940Z,100650.69
2018-10-11T04:48:54.591Z,100662.38
2018-10-11T04:51:30.689Z,100669.09
2018-10-11T04:54:06.709Z,100672.91
2018-10-11T04:56:42.717Z,100674.08
2018-10-11T04:59:19.109Z,100670.86
2018-10-11T05:01:56.411Z,100673.25
2018-10-11T05:04:32.173Z,100680.95
2018-10-11T05:07:08.293Z,100684.85
2018-10-11T05:09:44.404Z,100683.66
2018-10-11T05:12:20.179Z,100687.48
2018-10-11T05:14:56.912Z,100698.03
2018-10-11T05:17:32.713Z,100701.02
2018-10-11T05:20:10.550Z,100702.06
2018-10-11T05:22:46.333Z,100697.33
2018-10-11T05:25:23.500Z,100702.30
2018-10-11T05:28:00.004Z,100703.77
2018-10-11T05:30:36.781Z,100699.57
2018-10-11T05:33:12.781Z,100710.73
2018-10-11T05:35:48.840Z,100715.27
2018-10-11T05:38:24.719Z,100719.16
2018-10-11T05:41:01.596Z,100720.97
2018-10-11T05:43:37.963Z,100720.25
2018-10-11T05:46:36.312Z,100723.57
2018-10-11T05:49:12.805Z,100728.03
2018-10-11T05:51:48.723Z,100727.23
2018-10-11T05:54:24.861Z,100729.27
2018-10-11T05:57:00.857Z,100730.61
2018-10-11T05:59:36.779Z,100737.83
2018-10-11T06:02:12.724Z,100728.94
2018-10-11T06:04:48.710Z,100733.97
2018-10-11T06:07:24.639Z,100725.29
2018-10-11T06:10:00.813Z,100736.22
2018-10-11T06:12:36.777Z,100731.70
2018-10-11T06:15:12.424Z,100735.38
2018-10-11T06:17:48.842Z,100726.40
2018-10-11T06:20:24.824Z,100729.72
2018-10-11T06:23:01.153Z,100734.11
2018-10-11T06:25:37.775Z,100729.32
2018-10-11T06:28:14.989Z,100731.87
2018-10-11T06:30:51.037Z,100731.94
2018-10-11T06:33:26.725Z,100732.34
2018-10-11T06:36:03.098Z,100729.03
2018-10-11T06:38:38.977Z,100727.45
2018-10-11T06:41:14.971Z,100730.80
2018-10-11T06:43:50.960Z,100725.84
2018-10-11T06:46:26.656Z,100723.39
2018-10-11T06:49:02.199Z,100720.58
2018-10-11T06:51:38.386Z,100725.83
2018-10-11T06:54:14.409Z,100721.20
2018-10-11T06:56:50.982Z,100722.04
2018-10-11T06:59:27.267Z,100724.66
2018-10-11T07:02:03.262Z,100727.34
2018-10-11T07:04:39.732Z,100726.33
2018-10-11T07:07:15.958Z,100726.98
2018-10-11T07:09:51.782Z,100725.63
2018-10-11T07:12:27.366Z,100732.78
2018-10-11T07:15:03.669Z,100733.75
2018-10-11T07:17:40.719Z,100735.36
2018-10-11T07:20:17.545Z,100736.44
2018-10-11T07:22:53.593Z,100738.05
2018-10-11T07:25:29.561Z,100737.04
2018-10-11T07:28:06.161Z,100738.21
2018-10-11T07:30:42.174Z,100745.55
2018-10-11T07:33:18.218Z,100743.38
2018-10-11T07:35:54.167Z,100751.22
2018-10-11T07:38:30.002Z,100753.41
2018-10-11T07:41:06.072Z,100753.09
2018-10-11T07:43:42.637Z,100748.77
2018-10-11T07:46:18.891Z,100752.27
2018-10-11T07:51:23.974Z,100749.11
2018-10-11T07:54:04.163Z,100742.41
2018-10-11T07:56:40.549Z,100750.45
2018-10-11T07:59:16.915Z,100746.42
2018-10-11T08:01:52.909Z,100747.09
2018-10-11T08:04:29.049Z,100742.58
2018-10-11T08:07:05.175Z,100749.28
2018-10-11T08:09:41.138Z,100749.14
2018-10-11T08:12:17.353Z,100750.48
2018-10-11T08:14:53.821Z,100754.70
2018-10-11T08:17:30.031Z,100747.87
2018-10-11T08:20:06.312Z,100748.38
2018-10-11T08:22:42.792Z,100747.87
2018-10-11T08:25:19.632Z,100747.56
2018-10-11T08:27:53.725Z,100754.94
2018-10-11T08:30:29.912Z,100750.11
2018-10-11T08:33:06.232Z,100747.93
2018-10-11T08:35:42.014Z,100749.47
2018-10-11T08:38:18.888Z,100748.30
2018-10-11T08:40:55.221Z,100750.98
2018-10-11T08:43:31.265Z,100750.67
2018-10-11T08:46:07.629Z,100754.06
2018-10-11T08:48:43.973Z,100757.75
2018-10-11T08:51:20.028Z,100761.27
2018-10-11T08:53:56.353Z,100756.91
2018-10-11T08:56:32.465Z,100758.45
2018-10-11T08:59:09.054Z,100754.09
2018-10-11T09:01:44.925Z,100756.13
2018-10-11T09:04:21.025Z,100750.47
2018-10-11T09:06:57.026Z,100750.66
2018-10-11T09:09:33.209Z,100756.70
2018-10-11T09:12:09.736Z,100754.55
2018-10-11T09:14:45.869Z,100756.39
2018-10-11T09:17:21.982Z,100753.07
2018-10-11T09:19:58.013Z,100752.23
2018-10-11T09:22:33.937Z,100747.23
2018-10-11T09:25:09.945Z,100746.93
2018-10-11T09:27:45.969Z,100742.27
2018-10-11T09:30:22.431Z,100752.16
2018-10-11T09:32:58.937Z,100750.81
2018-10-11T09:35:35.036Z,100746.99
2018-10-11T09:38:11.252Z,100743.97
2018-10-11T09:40:47.237Z,100742.33
2018-10-11T09:43:23.038Z,100740.66
2018-10-11T09:45:58.946Z,100741.35
2018-10-11T09:48:35.071Z,100737.33
2018-10-11T09:51:12.258Z,100735.66
2018-10-11T09:53:48.392Z,100735.55
2018-10-11T09:56:25.043Z,100734.38
2018-10-11T09:59:01.418Z,100727.38
2018-10-11T10:01:48.854Z,100726.03
2018-10-11T10:04:24.815Z,100729.21
2018-10-11T10:07:01.221Z,100725.55
2018-10-11T10:09:37.235Z,100723.91
2018-10-11T10:12:13.847Z,100730.27
2018-10-11T10:14:50.388Z,100732.65
2018-10-11T10:17:26.225Z,100730.94
2018-10-11T10:20:02.450Z,100734.66
2018-10-11T10:22:41.739Z,100737.00
2018-10-11T10:25:18.054Z,100738.03
2018-10-11T10:27:54.058Z,100744.89
2018-10-11T10:30:33.965Z,100741.91
2018-10-11T10:33:10.017Z,100742.91
2018-10-11T10:35:45.730Z,100741.27
2018-10-11T10:38:21.890Z,100742.77
2018-10-11T10:40:57.897Z,100742.63
2018-10-11T10:43:33.869Z,100739.64
2018-10-11T10:46:09.971Z,100741.98
2018-10-11T10:48:45.751Z,100747.88
2018-10-11T10:51:21.445Z,100740.51
2018-10-11T10:53:57.806Z,100737.52
2018-10-11T10:56:33.414Z,100739.06
2018-10-11T10:59:09.410Z,100741.20
2018-10-11T11:01:45.672Z,100733.06
2018-10-11T11:04:22.000Z,100727.17
2018-10-11T11:06:58.020Z,100722.34
2018-10-11T11:09:34.020Z,100720.33
2018-10-11T11:12:09.706Z,100721.67
2018-10-11T11:14:45.734Z,100718.34
2018-10-11T11:17:21.771Z,100715.17
2018-10-11T11:19:58.231Z,100715.36
2018-10-11T11:22:34.439Z,100705.98
2018-10-11T11:25:10.439Z,100711.54
2018-10-11T11:27:46.409Z,100710.70
2018-10-11T11:30:23.252Z,100704.17
2018-10-11T11:32:59.062Z,100705.01
2018-10-11T11:35:35.747Z,100706.55
2018-10-11T11:38:13.251Z,100700.55
2018-10-11T11:40:49.250Z,100705.90
2018-10-11T11:43:25.250Z,100712.26
2018-10-11T11:46:01.245Z,100715.13
2018-10-11T11:48:37.259Z,100715.63
2018-10-11T11:51:14.458Z,100715.83
2018-10-11T11:53:50.478Z,100724.16
2018-10-11T11:56:26.457Z,100719.06
2018-10-11T11:59:02.273Z,100723.91
2018-10-11T12:01:38.265Z,100727.09
2018-10-11T12:04:14.301Z,100731.11
2018-10-11T12:06:50.453Z,100730.96
2018-10-11T12:09:26.752Z,100741.48
2018-10-11T12:12:03.091Z,100744.16
2018-10-11T12:14:38.909Z,100748.06
2018-10-11T12:17:14.709Z,100750.74
2018-10-11T12:19:50.734Z,100747.08
2018-10-11T12:22:27.137Z,100743.37
2018-10-11T12:25:04.274Z,100742.22
2018-10-11T12:27:40.030Z,100745.59
2018-10-11T12:30:16.483Z,100756.80
2018-10-11T12:32:52.506Z,100751.64
2018-10-11T12:35:29.066Z,100754.52
2018-10-11T12:38:05.341Z,100762.39
2018-10-11T12:40:41.361Z,100770.43
2018-10-11T12:43:18.107Z,100766.08
2018-10-11T12:45:54.304Z,100772.42
2018-10-11T12:48:30.025Z,100776.94
2018-10-11T12:51:06.299Z,100773.92
2018-10-11T12:53:45.093Z,100778.63
2018-10-11T12:56:18.467Z,100785.86
2018-10-11T12:58:54.305Z,100789.03
2018-10-11T13:01:30.277Z,100787.55
2018-10-11T13:04:06.464Z,100792.06
2018-10-11T13:06:42.280Z,100789.23
2018-10-11T13:09:18.342Z,100797.45
2018-10-11T13:11:54.358Z,100798.45
2018-10-11T13:14:30.281Z,100805.83
2018-10-11T13:17:06.108Z,100805.83
2018-10-11T13:19:42.111Z,100809.84
2018-10-11T13:22:18.302Z,100815.39
2018-10-11T13:24:54.286Z,100816.39
2018-10-11T13:27:30.069Z,100814.74
2018-10-11T13:30:06.290Z,100822.77
2018-10-11T13:32:42.289Z,100824.61
2018-10-11T13:35:18.008Z,100824.30
2018-10-11T13:37:54.150Z,100824.15
2018-10-11T13:40:30.295Z,100827.66
2018-10-11T13:43:06.885Z,100830.50
2018-10-11T13:47:52.299Z,100833.52
2018-10-11T13:50:28.063Z,100833.36
2018-10-11T13:53:04.102Z,100839.25
2018-10-11T13:55:40.246Z,100839.09
2018-10-11T13:58:16.303Z,100841.80
2018-10-11T14:00:52.058Z,100846.84
2018-10-11T14:03:28.080Z,100842.52
2018-10-11T14:06:04.150Z,100841.75
2018-10-11T14:08:40.140Z,100843.08
2018-10-11T14:11:16.070Z,100848.62
2018-10-11T14:13:53.040Z,100851.29
2018-10-11T14:16:29.149Z,100856.83
2018-10-11T14:19:05.135Z,100859.16
2018-10-11T14:21:43.129Z,100859.50
2018-10-11T14:24:19.586Z,100857.34
2018-10-11T14:26:56.130Z,100857.37
2018-10-11T14:29:32.521Z,100867.41
2018-10-11T14:32:08.326Z,100864.27
2018-10-11T14:34:44.337Z,100867.63
2018-10-11T14:37:21.079Z,100874.46
2018-10-11T14:39:57.122Z,100872.31
2018-10-11T14:42:33.133Z,100875.14
2018-10-11T14:45:10.078Z,100879.34
2018-10-11T14:47:46.049Z,100882.50
2018-10-11T14:50:22.484Z,100886.88
2018-10-11T14:52:59.048Z,100882.18
2018-10-11T14:55:35.078Z,100883.52
2018-10-11T14:58:11.144Z,100880.53
2018-10-11T15:00:47.140Z,100887.53
2018-10-11T15:03:23.399Z,100889.05
2018-10-11T15:05:59.543Z,100896.23
2018-10-11T15:08:35.500Z,100903.94
2018-10-11T15:11:11.756Z,100904.42
2018-10-11T15:13:47.903Z,100904.27
2018-10-11T15:16:24.138Z,100911.97
2018-10-11T15:19:00.269Z,100912.47
2018-10-11T15:21:36.147Z,100913.80
2018-10-11T15:24:12.495Z,100922.00
2018-10-11T15:26:48.887Z,100925.83
2018-10-11T15:29:25.267Z,100931.00
2018-10-11T15:32:01.924Z,100935.69
2018-10-11T15:34:37.967Z,100936.36
2018-10-11T15:37:14.145Z,100943.39
2018-10-11T15:39:50.354Z,100940.19
2018-10-11T15:42:26.207Z,100935.20
2018-10-11T15:45:02.068Z,100942.20
2018-10-11T15:47:38.336Z,100944.72
2018-10-11T15:50:14.153Z,100939.69
2018-10-11T15:52:50.151Z,100941.87
2018-10-11T15:55:26.340Z,100952.73
2018-10-11T15:58:02.910Z,100951.41
2018-10-11T16:00:39.054Z,100949.72
2018-10-11T16:03:15.129Z,100944.88
2018-10-11T16:05:51.166Z,100948.39
2018-10-11T16:08:27.333Z,100954.23
2018-10-11T16:11:03.158Z,100955.56
2018-10-11T16:16:30.087Z,100952.72
2018-10-11T16:19:05.810Z,100952.89
2018-10-11T16:21:42.288Z,100952.08
2018-10-11T16:24:18.334Z,100952.08
2018-10-11T16:26:54.074Z,100954.75
2018-10-11T16:29:29.529Z,100956.09
2018-10-11T16:32:05.081Z,100962.08
2018-10-11T16:34:41.046Z,100962.08
2018-10-11T16:37:17.346Z,100965.09
2018-10-11T16:39:53.061Z,100965.45
2018-10-11T16:42:29.365Z,100966.93
2018-10-11T16:45:05.377Z,100969.11
2018-10-11T16:47:41.259Z,100961.44
2018-10-11T16:50:17.365Z,100957.06
2018-10-11T16:52:53.345Z,100962.76
2018-10-11T16:55:28.902Z,100956.57
2018-10-11T16:58:05.475Z,100966.41
2018-10-11T17:00:41.845Z,100958.73
2018-10-11T17:03:17.549Z,100963.56
2018-10-11T17:05:53.299Z,100962.22
2018-10-11T17:08:29.177Z,100958.86
2018-10-11T17:11:05.993Z,100957.19
2018-10-11T17:13:41.989Z,100963.02
2018-10-11T17:16:17.929Z,100958.33
2018-10-11T17:18:54.353Z,100956.31
2018-10-11T17:21:30.437Z,100964.68
2018-10-11T17:24:06.349Z,100964.99
2018-10-11T17:26:42.003Z,100961.83
2018-10-11T17:29:18.952Z,100963.51
2018-10-11T17:34:18.010Z,100967.50
2018-10-11T17:36:53.566Z,100963.82
2018-10-11T17:39:29.311Z,100965.00
2018-10-11T17:42:05.149Z,100963.98
2018-10-11T17:44:40.847Z,100962.15
2018-10-11T17:47:17.184Z,100960.45
2018-10-11T17:49:52.821Z,100961.28
2018-10-11T17:52:28.930Z,100960.61
2018-10-11T17:55:05.323Z,100961.63
2018-10-11T17:57:41.195Z,100966.30
2018-10-11T18:00:17.587Z,100968.83
2018-10-11T18:02:54.210Z,100960.95
2018-10-11T18:05:29.942Z,100965.32
2018-10-11T18:08:05.550Z,100966.13
2018-10-11T18:10:42.328Z,100959.60
2018-10-11T18:13:18.853Z,100950.73
2018-10-11T18:15:54.954Z,100950.89
2018-10-11T18:18:31.004Z,100950.89
2018-10-11T18:21:07.865Z,100950.74
2018-10-11T18:23:44.368Z,100946.55
2018-10-11T18:26:20.421Z,100943.88
2018-10-11T18:28:55.861Z,100944.18
2018-10-11T18:31:32.203Z,100943.84
2018-10-11T18:34:08.109Z,100942.83
2018-10-11T18:36:43.576Z,100937.10
2018-10-11T18:39:19.381Z,100932.44
2018-10-11T18:41:55.051Z,100928.89
2018-10-11T18:44:31.445Z,100928.55
2018-10-11T18:47:06.986Z,100928.67
2018-10-11T18:49:42.391Z,100928.02
2018-10-11T18:52:18.216Z,100918.09
2018-10-11T18:54:54.335Z,100919.93
2018-10-11T18:57:30.388Z,100915.88
2018-10-11T19:00:06.040Z,100912.83
2018-10-11T19:02:41.585Z,100912.98
2018-10-11T19:05:17.545Z,100907.58
2018-10-11T19:07:53.216Z,100906.90
2018-10-11T19:10:28.580Z,100906.36
2018-10-11T19:13:04.189Z,100898.98
2018-10-11T19:15:39.693Z,100892.58
2018-10-11T19:18:15.577Z,100883.56
2018-10-11T19:20:51.595Z,100886.19
2018-10-11T19:23:27.851Z,100884.16
2018-10-11T19:26:04.030Z,100885.95
2018-10-11T19:28:39.704Z,100879.41
2018-10-11T19:31:15.931Z,100874.00
2018-10-11T19:33:51.570Z,100875.69
2018-10-11T19:36:28.054Z,100870.97
2018-10-11T19:39:04.564Z,100864.58
2018-10-11T19:41:40.585Z,100861.20
2018-10-11T19:44:16.602Z,100866.22
2018-10-11T19:46:53.145Z,100863.83
2018-10-11T19:49:29.229Z,100861.45
2018-10-11T19:52:05.230Z,100860.77
2018-10-11T19:54:42.640Z,100845.86
2018-10-11T19:57:18.408Z,100854.58
2018-10-11T19:59:54.193Z,100840.14
2018-10-11T20:02:30.231Z,100837.11
2018-10-11T20:05:06.430Z,100828.88
2018-10-11T20:07:42.057Z,100828.52
2018-10-11T20:10:17.934Z,100817.09
2018-10-11T20:12:54.405Z,100815.76
2018-10-11T20:15:30.570Z,100812.19
2018-10-11T20:18:06.585Z,100815.40
2018-10-11T20:20:42.240Z,100808.70
2018-10-11T20:23:18.242Z,100806.66
2018-10-11T20:25:54.234Z,100800.41
2018-10-11T20:28:30.993Z,100797.22
2018-10-11T20:31:07.418Z,100794.48
2018-10-11T20:33:43.214Z,100786.24
2018-10-11T20:36:19.413Z,100780.02
2018-10-11T20:38:55.421Z,100776.14
2018-10-11T20:41:31.589Z,100777.08
2018-10-11T20:44:08.574Z,100771.86
2018-10-11T20:46:44.665Z,100772.50
2018-10-11T20:49:20.422Z,100773.64
2018-10-11T20:51:56.246Z,100758.72
2018-10-11T20:54:32.131Z,100758.02
2018-10-11T20:57:08.997Z,100760.64
2018-10-11T20:59:45.146Z,100753.80
2018-10-11T21:02:21.250Z,100751.19
2018-10-11T21:04:57.431Z,100749.98
2018-10-11T21:07:33.337Z,100749.95
2018-10-11T21:10:09.426Z,100740.89
2018-10-11T21:12:45.999Z,100741.33
2018-10-11T21:15:21.967Z,100738.27
2018-10-11T21:17:58.633Z,100733.05
2018-10-11T21:20:34.867Z,100731.50
2018-10-11T21:23:11.235Z,100721.08
2018-10-11T21:25:47.245Z,100721.73
2018-10-11T21:28:23.540Z,100721.34
2018-10-11T21:31:00.009Z,100721.97
2018-10-11T21:33:36.442Z,100712.91
2018-10-11T21:36:12.308Z,100707.14
2018-10-11T21:38:48.261Z,100699.42
2018-10-11T21:41:24.137Z,100693.85
2018-10-11T21:44:00.093Z,100697.50
2018-10-11T21:46:36.163Z,100701.96
2018-10-11T21:49:12.262Z,100698.47
2018-10-11T21:51:48.475Z,100690.01
2018-10-11T21:54:24.447Z,100688.50
2018-10-11T21:57:00.089Z,100682.59
2018-10-11T21:59:36.186Z,100682.22
2018-10-11T22:02:12.253Z,100680.67
2018-10-11T22:04:48.070Z,100672.74
2018-10-11T22:07:24.007Z,100677.91
2018-10-11T22:10:00.074Z,100666.23
2018-10-11T22:12:35.627Z,100675.85
2018-10-11T22:15:11.301Z,100673.83
2018-10-11T22:17:47.150Z,100675.47
2018-10-11T22:20:23.264Z,100675.27
2018-10-11T22:22:59.603Z,100667.55
2018-10-11T22:25:36.067Z,100672.20
2018-10-11T22:28:12.276Z,100677.40
2018-10-11T22:30:48.297Z,100674.38
2018-10-11T22:33:24.498Z,100679.07
2018-10-11T22:36:00.866Z,100682.39
2018-10-11T22:38:36.921Z,100678.99
2018-10-11T22:41:13.949Z,100681.30
2018-10-11T22:43:49.940Z,100679.75
2018-10-11T22:46:25.650Z,100677.06
2018-10-11T22:49:02.181Z,100674.17
2018-10-11T22:51:38.456Z,100673.79
2018-10-11T22:54:14.843Z,100671.73
2018-10-11T22:56:51.148Z,100665.86
2018-10-11T22:59:27.282Z,100666.16
2018-10-11T23:02:03.308Z,100669.67
2018-10-11T23:04:39.752Z,100669.38
2018-10-11T23:07:15.582Z,100675.88
2018-10-11T23:09:51.970Z,100674.54
2018-10-11T23:12:28.230Z,100677.02
2018-10-11T23:15:03.958Z,100680.03
2018-10-11T23:17:40.292Z,100685.70
2018-10-11T23:20:16.014Z,100681.67
2018-10-11T23:22:51.765Z,100689.56
2018-10-11T23:25:28.153Z,100686.67
2018-10-11T23:28:04.151Z,100685.63
2018-10-11T23:30:40.228Z,100683.27
2018-10-11T23:33:16.227Z,100683.59
2018-10-11T23:35:52.093Z,100688.26
2018-10-11T23:38:28.226Z,100689.06
2018-10-11T23:41:04.665Z,100698.79
2018-10-11T23:43:40.687Z,100685.69
2018-10-11T23:46:16.867Z,100687.84
2018-10-11T23:48:52.744Z,100682.47
2018-10-11T23:51:28.729Z,100687.66
2018-10-11T23:54:04.661Z,100683.42
2018-10-11T23:56:40.503Z,100681.75
2018-10-11T23:59:16.473Z,100682.38
